sensor_id;sensor_type;location;lat;lon;timestamp;P1;durP1;ratioP1;P2;durP2;ratioP2
54139;SDS011;40046;53.254;5.900;2023-08-06T00:01:59;14.45;;;10.25;;
54139;SDS011;40046;53.254;5.900;2023-08-06T00:04:25;11.93;;;10.27;;
54139;SDS011;40046;53.254;5.900;2023-08-06T00:06:52;9.82;;;8.82;;
54139;SDS011;40046;53.254;5.900;2023-08-06T00:09:18;12.25;;;9.68;;
54139;SDS011;40046;53.254;5.900;2023-08-06T00:11:44;10.02;;;8.95;;
54139;SDS011;40046;53.254;5.900;2023-08-06T00:14:12;10.90;;;9.23;;
54139;SDS011;40046;53.254;5.900;2023-08-06T00:16:42;10.20;;;9.20;;
54139;SDS011;40046;53.254;5.900;2023-08-06T00:19:08;9.25;;;8.35;;
54139;SDS011;40046;53.254;5.900;2023-08-06T00:21:34;10.90;;;7.43;;
54139;SDS011;40046;53.254;5.900;2023-08-06T00:24:00;12.18;;;8.95;;
54139;SDS011;40046;53.254;5.900;2023-08-06T00:26:27;11.90;;;8.27;;
54139;SDS011;40046;53.254;5.900;2023-08-06T00:28:53;11.52;;;7.63;;
54139;SDS011;40046;53.254;5.900;2023-08-06T00:31:19;7.95;;;6.63;;
54139;SDS011;40046;53.254;5.900;2023-08-06T00:33:45;8.55;;;7.65;;
54139;SDS011;40046;53.254;5.900;2023-08-06T00:36:11;9.20;;;8.23;;
54139;SDS011;40046;53.254;5.900;2023-08-06T00:38:38;14.20;;;8.93;;
54139;SDS011;40046;53.254;5.900;2023-08-06T00:41:04;10.43;;;8.43;;
54139;SDS011;40046;53.254;5.900;2023-08-06T00:43:30;16.55;;;8.02;;
54139;SDS011;40046;53.254;5.900;2023-08-06T00:45:56;13.55;;;8.68;;
54139;SDS011;40046;53.254;5.900;2023-08-06T00:48:22;8.38;;;7.47;;
54139;SDS011;40046;53.254;5.900;2023-08-06T00:50:49;10.32;;;8.43;;
54139;SDS011;40046;53.254;5.900;2023-08-06T00:53:15;10.63;;;9.10;;
54139;SDS011;40046;53.254;5.900;2023-08-06T00:55:41;12.40;;;9.00;;
54139;SDS011;40046;53.254;5.900;2023-08-06T00:58:08;13.15;;;8.23;;
54139;SDS011;40046;53.254;5.900;2023-08-06T01:00:34;10.07;;;8.50;;
54139;SDS011;40046;53.254;5.900;2023-08-06T01:03:00;11.23;;;7.93;;
54139;SDS011;40046;53.254;5.900;2023-08-06T01:05:26;9.30;;;8.18;;
54139;SDS011;40046;53.254;5.900;2023-08-06T01:12:55;9.00;;;7.78;;
54139;SDS011;40046;53.254;5.900;2023-08-06T01:15:27;14.23;;;8.88;;
54139;SDS011;40046;53.254;5.900;2023-08-06T01:17:55;10.38;;;9.18;;
54139;SDS011;40046;53.254;5.900;2023-08-06T01:20:21;11.55;;;8.90;;
54139;SDS011;40046;53.254;5.900;2023-08-06T01:22:47;13.35;;;8.18;;
54139;SDS011;40046;53.254;5.900;2023-08-06T01:25:14;12.55;;;8.43;;
54139;SDS011;40046;53.254;5.900;2023-08-06T01:30:22;10.98;;;9.05;;
54139;SDS011;40046;53.254;5.900;2023-08-06T01:32:52;30.13;;;9.48;;
54139;SDS011;40046;53.254;5.900;2023-08-06T01:35:19;11.18;;;8.82;;
54139;SDS011;40046;53.254;5.900;2023-08-06T01:37:45;13.80;;;9.13;;
54139;SDS011;40046;53.254;5.900;2023-08-06T01:40:12;16.95;;;9.13;;
54139;SDS011;40046;53.254;5.900;2023-08-06T01:42:39;11.35;;;9.20;;
54139;SDS011;40046;53.254;5.900;2023-08-06T01:45:07;14.50;;;10.05;;
54139;SDS011;40046;53.254;5.900;2023-08-06T01:47:33;11.15;;;9.65;;
54139;SDS011;40046;53.254;5.900;2023-08-06T01:49:59;13.98;;;10.00;;
54139;SDS011;40046;53.254;5.900;2023-08-06T01:52:25;10.80;;;9.70;;
54139;SDS011;40046;53.254;5.900;2023-08-06T01:54:52;12.88;;;9.45;;
54139;SDS011;40046;53.254;5.900;2023-08-06T01:57:18;11.23;;;10.13;;
54139;SDS011;40046;53.254;5.900;2023-08-06T01:59:44;12.55;;;9.02;;
54139;SDS011;40046;53.254;5.900;2023-08-06T02:02:10;12.43;;;9.18;;
54139;SDS011;40046;53.254;5.900;2023-08-06T02:04:36;14.93;;;9.77;;
54139;SDS011;40046;53.254;5.900;2023-08-06T02:07:02;16.48;;;10.70;;
54139;SDS011;40046;53.254;5.900;2023-08-06T02:09:29;10.75;;;9.57;;
54139;SDS011;40046;53.254;5.900;2023-08-06T02:11:55;12.85;;;10.18;;
54139;SDS011;40046;53.254;5.900;2023-08-06T02:14:22;12.15;;;9.88;;
54139;SDS011;40046;53.254;5.900;2023-08-06T02:16:48;11.38;;;10.18;;
54139;SDS011;40046;53.254;5.900;2023-08-06T02:19:15;15.77;;;10.57;;
54139;SDS011;40046;53.254;5.900;2023-08-06T02:21:41;11.65;;;10.45;;
54139;SDS011;40046;53.254;5.900;2023-08-06T02:24:07;12.20;;;9.25;;
54139;SDS011;40046;53.254;5.900;2023-08-06T02:26:33;13.73;;;10.68;;
54139;SDS011;40046;53.254;5.900;2023-08-06T02:28:59;12.60;;;10.23;;
54139;SDS011;40046;53.254;5.900;2023-08-06T02:31:25;12.48;;;10.27;;
54139;SDS011;40046;53.254;5.900;2023-08-06T02:33:51;13.18;;;10.18;;
54139;SDS011;40046;53.254;5.900;2023-08-06T02:36:19;12.13;;;10.55;;
54139;SDS011;40046;53.254;5.900;2023-08-06T02:38:45;17.42;;;9.93;;
54139;SDS011;40046;53.254;5.900;2023-08-06T02:41:11;13.23;;;9.98;;
54139;SDS011;40046;53.254;5.900;2023-08-06T02:43:37;10.70;;;9.60;;
54139;SDS011;40046;53.254;5.900;2023-08-06T02:46:04;13.38;;;10.13;;
54139;SDS011;40046;53.254;5.900;2023-08-06T02:48:30;11.63;;;10.00;;
54139;SDS011;40046;53.254;5.900;2023-08-06T02:50:57;16.00;;;10.95;;
54139;SDS011;40046;53.254;5.900;2023-08-06T02:53:24;14.93;;;10.25;;
54139;SDS011;40046;53.254;5.900;2023-08-06T02:55:51;12.35;;;10.85;;
54139;SDS011;40046;53.254;5.900;2023-08-06T02:58:23;14.35;;;11.18;;
54139;SDS011;40046;53.254;5.900;2023-08-06T03:01:02;13.02;;;10.00;;
54139;SDS011;40046;53.254;5.900;2023-08-06T03:03:31;11.23;;;10.07;;
54139;SDS011;40046;53.254;5.900;2023-08-06T03:06:00;12.82;;;10.05;;
54139;SDS011;40046;53.254;5.900;2023-08-06T03:08:35;12.15;;;10.43;;
54139;SDS011;40046;53.254;5.900;2023-08-06T03:11:01;14.15;;;10.73;;
54139;SDS011;40046;53.254;5.900;2023-08-06T03:13:27;13.20;;;10.60;;
54139;SDS011;40046;53.254;5.900;2023-08-06T03:18:20;12.35;;;11.02;;
54139;SDS011;40046;53.254;5.900;2023-08-06T03:20:48;12.82;;;10.18;;
54139;SDS011;40046;53.254;5.900;2023-08-06T03:23:15;12.75;;;9.57;;
54139;SDS011;40046;53.254;5.900;2023-08-06T03:25:41;13.43;;;11.55;;
54139;SDS011;40046;53.254;5.900;2023-08-06T03:28:07;13.85;;;10.98;;
54139;SDS011;40046;53.254;5.900;2023-08-06T03:30:34;12.00;;;10.50;;
54139;SDS011;40046;53.254;5.900;2023-08-06T03:33:01;11.52;;;10.32;;
54139;SDS011;40046;53.254;5.900;2023-08-06T03:35:28;12.02;;;10.77;;
54139;SDS011;40046;53.254;5.900;2023-08-06T03:37:54;14.15;;;11.15;;
54139;SDS011;40046;53.254;5.900;2023-08-06T03:40:21;14.65;;;10.88;;
54139;SDS011;40046;53.254;5.900;2023-08-06T03:42:47;13.35;;;11.60;;
54139;SDS011;40046;53.254;5.900;2023-08-06T03:45:13;12.40;;;10.95;;
54139;SDS011;40046;53.254;5.900;2023-08-06T03:47:41;14.82;;;11.10;;
54139;SDS011;40046;53.254;5.900;2023-08-06T03:50:08;14.00;;;10.45;;
54139;SDS011;40046;53.254;5.900;2023-08-06T03:52:34;13.20;;;10.70;;
54139;SDS011;40046;53.254;5.900;2023-08-06T03:55:00;12.30;;;10.95;;
54139;SDS011;40046;53.254;5.900;2023-08-06T03:57:26;15.80;;;11.52;;
54139;SDS011;40046;53.254;5.900;2023-08-06T03:59:52;19.55;;;11.13;;
54139;SDS011;40046;53.254;5.900;2023-08-06T04:02:18;15.18;;;12.18;;
54139;SDS011;40046;53.254;5.900;2023-08-06T04:04:44;14.63;;;11.43;;
54139;SDS011;40046;53.254;5.900;2023-08-06T04:07:10;12.20;;;10.65;;
54139;SDS011;40046;53.254;5.900;2023-08-06T04:09:52;11.90;;;10.57;;
54139;SDS011;40046;53.254;5.900;2023-08-06T04:12:19;11.93;;;10.30;;
54139;SDS011;40046;53.254;5.900;2023-08-06T04:14:45;12.95;;;10.40;;
54139;SDS011;40046;53.254;5.900;2023-08-06T04:17:11;15.52;;;12.07;;
54139;SDS011;40046;53.254;5.900;2023-08-06T04:19:37;11.70;;;10.25;;
54139;SDS011;40046;53.254;5.900;2023-08-06T04:22:03;12.80;;;11.40;;
54139;SDS011;40046;53.254;5.900;2023-08-06T04:24:29;16.50;;;11.40;;
54139;SDS011;40046;53.254;5.900;2023-08-06T04:26:56;13.63;;;11.43;;
54139;SDS011;40046;53.254;5.900;2023-08-06T04:29:22;13.75;;;11.18;;
54139;SDS011;40046;53.254;5.900;2023-08-06T04:31:49;13.23;;;10.65;;
54139;SDS011;40046;53.254;5.900;2023-08-06T04:34:15;15.20;;;11.02;;
54139;SDS011;40046;53.254;5.900;2023-08-06T04:36:41;13.45;;;10.27;;
54139;SDS011;40046;53.254;5.900;2023-08-06T04:39:08;13.25;;;11.85;;
54139;SDS011;40046;53.254;5.900;2023-08-06T04:41:35;13.18;;;11.77;;
54139;SDS011;40046;53.254;5.900;2023-08-06T04:44:01;14.68;;;11.48;;
54139;SDS011;40046;53.254;5.900;2023-08-06T04:46:29;15.70;;;12.27;;
54139;SDS011;40046;53.254;5.900;2023-08-06T04:48:55;17.52;;;11.55;;
54139;SDS011;40046;53.254;5.900;2023-08-06T04:51:21;14.77;;;11.93;;
54139;SDS011;40046;53.254;5.900;2023-08-06T04:53:47;12.10;;;10.90;;
54139;SDS011;40046;53.254;5.900;2023-08-06T04:56:13;18.85;;;12.00;;
54139;SDS011;40046;53.254;5.900;2023-08-06T04:58:39;12.48;;;10.80;;
54139;SDS011;40046;53.254;5.900;2023-08-06T05:01:05;13.77;;;11.63;;
54139;SDS011;40046;53.254;5.900;2023-08-06T05:03:31;14.73;;;11.45;;
54139;SDS011;40046;53.254;5.900;2023-08-06T05:05:57;13.88;;;12.48;;
54139;SDS011;40046;53.254;5.900;2023-08-06T05:08:23;13.68;;;12.23;;
54139;SDS011;40046;53.254;5.900;2023-08-06T05:10:50;16.45;;;11.38;;
54139;SDS011;40046;53.254;5.900;2023-08-06T05:13:16;15.30;;;11.85;;
54139;SDS011;40046;53.254;5.900;2023-08-06T05:15:42;12.15;;;10.82;;
54139;SDS011;40046;53.254;5.900;2023-08-06T05:18:10;15.68;;;13.25;;
54139;SDS011;40046;53.254;5.900;2023-08-06T05:20:40;15.27;;;11.80;;
54139;SDS011;40046;53.254;5.900;2023-08-06T05:23:06;17.38;;;11.88;;
54139;SDS011;40046;53.254;5.900;2023-08-06T05:25:36;15.70;;;12.70;;
54139;SDS011;40046;53.254;5.900;2023-08-06T05:28:02;18.23;;;11.52;;
54139;SDS011;40046;53.254;5.900;2023-08-06T05:30:28;16.65;;;12.00;;
54139;SDS011;40046;53.254;5.900;2023-08-06T05:32:55;14.48;;;12.93;;
54139;SDS011;40046;53.254;5.900;2023-08-06T05:35:21;15.05;;;11.02;;
54139;SDS011;40046;53.254;5.900;2023-08-06T05:37:47;15.23;;;12.52;;
54139;SDS011;40046;53.254;5.900;2023-08-06T05:40:14;14.25;;;12.75;;
54139;SDS011;40046;53.254;5.900;2023-08-06T05:42:40;13.40;;;12.00;;
54139;SDS011;40046;53.254;5.900;2023-08-06T05:45:06;13.98;;;12.55;;
54139;SDS011;40046;53.254;5.900;2023-08-06T05:47:33;15.68;;;12.32;;
54139;SDS011;40046;53.254;5.900;2023-08-06T05:49:59;15.68;;;12.52;;
54139;SDS011;40046;53.254;5.900;2023-08-06T05:52:25;14.88;;;12.20;;
54139;SDS011;40046;53.254;5.900;2023-08-06T05:54:51;15.40;;;12.80;;
54139;SDS011;40046;53.254;5.900;2023-08-06T05:57:17;16.40;;;12.43;;
54139;SDS011;40046;53.254;5.900;2023-08-06T05:59:44;14.93;;;13.27;;
54139;SDS011;40046;53.254;5.900;2023-08-06T06:02:10;13.77;;;12.30;;
54139;SDS011;40046;53.254;5.900;2023-08-06T06:04:36;14.88;;;11.57;;
54139;SDS011;40046;53.254;5.900;2023-08-06T06:07:02;14.88;;;11.95;;
54139;SDS011;40046;53.254;5.900;2023-08-06T06:09:29;13.80;;;12.50;;
54139;SDS011;40046;53.254;5.900;2023-08-06T06:11:55;14.98;;;12.52;;
54139;SDS011;40046;53.254;5.900;2023-08-06T06:14:21;14.65;;;11.85;;
54139;SDS011;40046;53.254;5.900;2023-08-06T06:16:47;15.18;;;12.90;;
54139;SDS011;40046;53.254;5.900;2023-08-06T06:19:13;13.75;;;12.32;;
54139;SDS011;40046;53.254;5.900;2023-08-06T06:21:39;16.60;;;12.05;;
54139;SDS011;40046;53.254;5.900;2023-08-06T06:24:05;13.15;;;11.75;;
54139;SDS011;40046;53.254;5.900;2023-08-06T06:26:33;11.77;;;10.00;;
54139;SDS011;40046;53.254;5.900;2023-08-06T06:28:59;10.70;;;9.45;;
54139;SDS011;40046;53.254;5.900;2023-08-06T06:31:25;10.30;;;9.30;;
54139;SDS011;40046;53.254;5.900;2023-08-06T06:33:51;10.05;;;8.43;;
54139;SDS011;40046;53.254;5.900;2023-08-06T06:36:19;10.95;;;8.30;;
54139;SDS011;40046;53.254;5.900;2023-08-06T06:38:45;9.45;;;7.00;;
54139;SDS011;40046;53.254;5.900;2023-08-06T06:41:13;11.13;;;6.72;;
54139;SDS011;40046;53.254;5.900;2023-08-06T06:43:39;9.60;;;6.60;;
54139;SDS011;40046;53.254;5.900;2023-08-06T06:46:05;8.35;;;6.10;;
54139;SDS011;40046;53.254;5.900;2023-08-06T06:48:32;8.07;;;5.75;;
54139;SDS011;40046;53.254;5.900;2023-08-06T06:50:58;7.00;;;6.15;;
54139;SDS011;40046;53.254;5.900;2023-08-06T06:53:25;9.63;;;5.57;;
54139;SDS011;40046;53.254;5.900;2023-08-06T06:55:54;6.90;;;5.10;;
54139;SDS011;40046;53.254;5.900;2023-08-06T06:58:21;6.32;;;5.13;;
54139;SDS011;40046;53.254;5.900;2023-08-06T07:00:47;7.93;;;5.25;;
54139;SDS011;40046;53.254;5.900;2023-08-06T07:03:14;7.82;;;5.40;;
54139;SDS011;40046;53.254;5.900;2023-08-06T07:05:40;6.20;;;4.88;;
54139;SDS011;40046;53.254;5.900;2023-08-06T07:08:06;6.32;;;5.70;;
54139;SDS011;40046;53.254;5.900;2023-08-06T07:10:33;11.02;;;5.65;;
54139;SDS011;40046;53.254;5.900;2023-08-06T07:12:59;7.25;;;6.28;;
54139;SDS011;40046;53.254;5.900;2023-08-06T07:15:25;6.25;;;5.43;;
54139;SDS011;40046;53.254;5.900;2023-08-06T07:17:51;7.18;;;5.65;;
54139;SDS011;40046;53.254;5.900;2023-08-06T07:20:17;8.55;;;6.10;;
54139;SDS011;40046;53.254;5.900;2023-08-06T07:22:44;7.10;;;5.68;;
54139;SDS011;40046;53.254;5.900;2023-08-06T07:25:10;8.82;;;5.65;;
54139;SDS011;40046;53.254;5.900;2023-08-06T07:27:36;6.93;;;4.63;;
54139;SDS011;40046;53.254;5.900;2023-08-06T07:30:02;5.30;;;4.28;;
54139;SDS011;40046;53.254;5.900;2023-08-06T07:32:30;5.07;;;4.03;;
54139;SDS011;40046;53.254;5.900;2023-08-06T07:34:56;7.82;;;4.55;;
54139;SDS011;40046;53.254;5.900;2023-08-06T07:37:26;6.68;;;4.00;;
54139;SDS011;40046;53.254;5.900;2023-08-06T07:39:55;4.53;;;3.17;;
54139;SDS011;40046;53.254;5.900;2023-08-06T07:42:21;5.43;;;3.85;;
54139;SDS011;40046;53.254;5.900;2023-08-06T07:44:54;6.57;;;3.58;;
54139;SDS011;40046;53.254;5.900;2023-08-06T07:47:20;6.40;;;3.80;;
54139;SDS011;40046;53.254;5.900;2023-08-06T07:49:47;6.30;;;3.80;;
54139;SDS011;40046;53.254;5.900;2023-08-06T07:52:13;5.00;;;3.72;;
54139;SDS011;40046;53.254;5.900;2023-08-06T07:54:39;21.92;;;3.95;;
54139;SDS011;40046;53.254;5.900;2023-08-06T07:57:05;5.97;;;3.78;;
54139;SDS011;40046;53.254;5.900;2023-08-06T07:59:31;8.68;;;3.72;;
54139;SDS011;40046;53.254;5.900;2023-08-06T08:01:58;5.25;;;3.67;;
54139;SDS011;40046;53.254;5.900;2023-08-06T08:04:24;3.67;;;2.80;;
54139;SDS011;40046;53.254;5.900;2023-08-06T08:06:50;7.40;;;3.63;;
54139;SDS011;40046;53.254;5.900;2023-08-06T08:09:16;5.40;;;3.20;;
54139;SDS011;40046;53.254;5.900;2023-08-06T08:11:43;3.88;;;3.20;;
54139;SDS011;40046;53.254;5.900;2023-08-06T08:14:09;6.95;;;3.15;;
54139;SDS011;40046;53.254;5.900;2023-08-06T08:16:35;5.90;;;3.47;;
54139;SDS011;40046;53.254;5.900;2023-08-06T08:19:01;8.10;;;3.70;;
54139;SDS011;40046;53.254;5.900;2023-08-06T08:21:29;4.22;;;3.53;;
54139;SDS011;40046;53.254;5.900;2023-08-06T08:23:55;6.93;;;3.00;;
54139;SDS011;40046;53.254;5.900;2023-08-06T08:26:21;5.57;;;3.40;;
54139;SDS011;40046;53.254;5.900;2023-08-06T08:28:48;4.47;;;2.85;;
54139;SDS011;40046;53.254;5.900;2023-08-06T08:31:15;6.43;;;2.40;;
54139;SDS011;40046;53.254;5.900;2023-08-06T08:33:41;3.47;;;2.35;;
54139;SDS011;40046;53.254;5.900;2023-08-06T08:36:07;4.78;;;2.30;;
54139;SDS011;40046;53.254;5.900;2023-08-06T08:38:35;6.10;;;2.40;;
54139;SDS011;40046;53.254;5.900;2023-08-06T08:41:01;3.08;;;2.20;;
54139;SDS011;40046;53.254;5.900;2023-08-06T08:43:27;4.95;;;2.53;;
54139;SDS011;40046;53.254;5.900;2023-08-06T08:45:54;3.80;;;2.30;;
54139;SDS011;40046;53.254;5.900;2023-08-06T08:48:21;5.25;;;1.88;;
54139;SDS011;40046;53.254;5.900;2023-08-06T08:50:48;7.72;;;2.35;;
54139;SDS011;40046;53.254;5.900;2023-08-06T08:53:15;2.88;;;1.60;;
54139;SDS011;40046;53.254;5.900;2023-08-06T08:55:42;5.18;;;2.13;;
54139;SDS011;40046;53.254;5.900;2023-08-06T08:58:08;3.78;;;2.10;;
54139;SDS011;40046;53.254;5.900;2023-08-06T09:00:34;3.25;;;1.77;;
54139;SDS011;40046;53.254;5.900;2023-08-06T09:03:01;3.08;;;2.00;;
54139;SDS011;40046;53.254;5.900;2023-08-06T09:05:28;4.63;;;2.08;;
54139;SDS011;40046;53.254;5.900;2023-08-06T09:07:56;2.92;;;1.40;;
54139;SDS011;40046;53.254;5.900;2023-08-06T09:10:27;3.72;;;1.90;;
54139;SDS011;40046;53.254;5.900;2023-08-06T09:12:54;4.13;;;2.13;;
54139;SDS011;40046;53.254;5.900;2023-08-06T09:15:23;3.17;;;2.05;;
54139;SDS011;40046;53.254;5.900;2023-08-06T09:17:50;5.85;;;2.30;;
54139;SDS011;40046;53.254;5.900;2023-08-06T09:20:16;3.35;;;1.80;;
54139;SDS011;40046;53.254;5.900;2023-08-06T09:22:42;4.07;;;2.30;;
54139;SDS011;40046;53.254;5.900;2023-08-06T09:25:10;3.03;;;1.83;;
54139;SDS011;40046;53.254;5.900;2023-08-06T09:27:39;3.45;;;1.83;;
54139;SDS011;40046;53.254;5.900;2023-08-06T09:30:07;3.95;;;2.10;;
54139;SDS011;40046;53.254;5.900;2023-08-06T09:32:46;4.88;;;2.10;;
54139;SDS011;40046;53.254;5.900;2023-08-06T09:35:16;3.75;;;1.73;;
54139;SDS011;40046;53.254;5.900;2023-08-06T09:37:42;5.22;;;2.30;;
54139;SDS011;40046;53.254;5.900;2023-08-06T09:40:23;3.97;;;1.65;;
54139;SDS011;40046;53.254;5.900;2023-08-06T09:42:50;4.63;;;2.55;;
54139;SDS011;40046;53.254;5.900;2023-08-06T09:45:16;4.63;;;2.55;;
54139;SDS011;40046;53.254;5.900;2023-08-06T09:47:42;3.88;;;1.70;;
54139;SDS011;40046;53.254;5.900;2023-08-06T09:50:18;2.83;;;1.73;;
54139;SDS011;40046;53.254;5.900;2023-08-06T09:52:44;4.93;;;2.20;;
54139;SDS011;40046;53.254;5.900;2023-08-06T09:55:11;3.85;;;2.03;;
54139;SDS011;40046;53.254;5.900;2023-08-06T09:57:38;4.63;;;2.50;;
54139;SDS011;40046;53.254;5.900;2023-08-06T10:00:05;6.88;;;2.10;;
54139;SDS011;40046;53.254;5.900;2023-08-06T10:02:38;3.85;;;2.00;;
54139;SDS011;40046;53.254;5.900;2023-08-06T10:05:05;4.88;;;1.95;;
54139;SDS011;40046;53.254;5.900;2023-08-06T10:07:31;3.88;;;1.90;;
54139;SDS011;40046;53.254;5.900;2023-08-06T10:09:58;4.80;;;2.30;;
54139;SDS011;40046;53.254;5.900;2023-08-06T10:12:24;5.55;;;2.45;;
54139;SDS011;40046;53.254;5.900;2023-08-06T10:14:52;5.68;;;2.38;;
54139;SDS011;40046;53.254;5.900;2023-08-06T10:17:20;6.13;;;2.55;;
54139;SDS011;40046;53.254;5.900;2023-08-06T10:19:47;7.18;;;2.38;;
54139;SDS011;40046;53.254;5.900;2023-08-06T10:22:14;5.35;;;2.00;;
54139;SDS011;40046;53.254;5.900;2023-08-06T10:24:45;3.85;;;1.92;;
54139;SDS011;40046;53.254;5.900;2023-08-06T10:27:11;4.47;;;1.95;;
54139;SDS011;40046;53.254;5.900;2023-08-06T10:29:38;4.03;;;1.98;;
54139;SDS011;40046;53.254;5.900;2023-08-06T10:32:04;4.65;;;2.15;;
54139;SDS011;40046;53.254;5.900;2023-08-06T10:37:15;5.32;;;1.70;;
54139;SDS011;40046;53.254;5.900;2023-08-06T10:39:47;2.92;;;1.70;;
54139;SDS011;40046;53.254;5.900;2023-08-06T10:42:21;3.75;;;1.92;;
54139;SDS011;40046;53.254;5.900;2023-08-06T10:47:26;4.35;;;1.92;;
54139;SDS011;40046;53.254;5.900;2023-08-06T10:49:53;3.05;;;1.98;;
54139;SDS011;40046;53.254;5.900;2023-08-06T10:52:19;4.13;;;2.08;;
54139;SDS011;40046;53.254;5.900;2023-08-06T10:54:45;6.63;;;2.33;;
54139;SDS011;40046;53.254;5.900;2023-08-06T10:57:11;3.75;;;2.20;;
54139;SDS011;40046;53.254;5.900;2023-08-06T10:59:37;4.60;;;1.90;;
54139;SDS011;40046;53.254;5.900;2023-08-06T11:02:03;6.35;;;2.60;;
54139;SDS011;40046;53.254;5.900;2023-08-06T11:04:33;4.45;;;2.65;;
54139;SDS011;40046;53.254;5.900;2023-08-06T11:06:59;5.30;;;2.05;;
54139;SDS011;40046;53.254;5.900;2023-08-06T11:09:25;6.70;;;2.20;;
54139;SDS011;40046;53.254;5.900;2023-08-06T11:11:51;4.43;;;2.10;;
54139;SDS011;40046;53.254;5.900;2023-08-06T11:14:18;3.95;;;2.00;;
54139;SDS011;40046;53.254;5.900;2023-08-06T11:16:44;5.00;;;2.72;;
54139;SDS011;40046;53.254;5.900;2023-08-06T11:19:10;7.68;;;2.50;;
54139;SDS011;40046;53.254;5.900;2023-08-06T11:21:36;5.57;;;2.78;;
54139;SDS011;40046;53.254;5.900;2023-08-06T11:24:02;3.88;;;2.80;;
54139;SDS011;40046;53.254;5.900;2023-08-06T11:26:28;4.38;;;3.10;;
54139;SDS011;40046;53.254;5.900;2023-08-06T11:28:54;6.13;;;3.13;;
54139;SDS011;40046;53.254;5.900;2023-08-06T11:31:23;6.55;;;3.15;;
54139;SDS011;40046;53.254;5.900;2023-08-06T11:33:53;4.90;;;2.95;;
54139;SDS011;40046;53.254;5.900;2023-08-06T11:36:32;4.35;;;2.60;;
54139;SDS011;40046;53.254;5.900;2023-08-06T11:38:59;5.28;;;3.25;;
54139;SDS011;40046;53.254;5.900;2023-08-06T11:41:27;5.78;;;3.70;;
54139;SDS011;40046;53.254;5.900;2023-08-06T11:43:53;4.03;;;2.42;;
54139;SDS011;40046;53.254;5.900;2023-08-06T11:46:19;4.80;;;2.75;;
54139;SDS011;40046;53.254;5.900;2023-08-06T11:48:55;6.00;;;2.40;;
54139;SDS011;40046;53.254;5.900;2023-08-06T11:51:25;4.18;;;2.40;;
54139;SDS011;40046;53.254;5.900;2023-08-06T11:53:51;5.15;;;2.40;;
54139;SDS011;40046;53.254;5.900;2023-08-06T11:56:20;4.97;;;2.60;;
54139;SDS011;40046;53.254;5.900;2023-08-06T11:58:46;5.43;;;2.55;;
54139;SDS011;40046;53.254;5.900;2023-08-06T12:01:13;5.15;;;3.05;;
54139;SDS011;40046;53.254;5.900;2023-08-06T12:03:39;5.95;;;2.63;;
54139;SDS011;40046;53.254;5.900;2023-08-06T12:06:06;5.43;;;2.53;;
54139;SDS011;40046;53.254;5.900;2023-08-06T12:08:35;5.97;;;2.63;;
54139;SDS011;40046;53.254;5.900;2023-08-06T12:11:03;4.72;;;2.15;;
54139;SDS011;40046;53.254;5.900;2023-08-06T12:13:29;5.20;;;2.47;;
54139;SDS011;40046;53.254;5.900;2023-08-06T12:15:55;4.10;;;2.35;;
54139;SDS011;40046;53.254;5.900;2023-08-06T12:18:22;4.03;;;2.60;;
54139;SDS011;40046;53.254;5.900;2023-08-06T12:20:49;5.15;;;2.63;;
54139;SDS011;40046;53.254;5.900;2023-08-06T12:23:15;3.92;;;2.45;;
54139;SDS011;40046;53.254;5.900;2023-08-06T12:25:41;3.53;;;2.22;;
54139;SDS011;40046;53.254;5.900;2023-08-06T12:28:09;4.25;;;2.50;;
54139;SDS011;40046;53.254;5.900;2023-08-06T12:30:37;4.07;;;2.78;;
54139;SDS011;40046;53.254;5.900;2023-08-06T12:33:06;5.68;;;2.63;;
54139;SDS011;40046;53.254;5.900;2023-08-06T12:35:33;4.28;;;2.30;;
54139;SDS011;40046;53.254;5.900;2023-08-06T12:37:59;3.28;;;2.38;;
54139;SDS011;40046;53.254;5.900;2023-08-06T12:40:25;4.00;;;2.22;;
54139;SDS011;40046;53.254;5.900;2023-08-06T12:42:51;3.85;;;2.10;;
54139;SDS011;40046;53.254;5.900;2023-08-06T12:45:18;5.03;;;3.08;;
54139;SDS011;40046;53.254;5.900;2023-08-06T12:47:46;6.13;;;2.88;;
54139;SDS011;40046;53.254;5.900;2023-08-06T12:50:12;4.72;;;2.78;;
54139;SDS011;40046;53.254;5.900;2023-08-06T12:52:38;6.72;;;3.17;;
54139;SDS011;40046;53.254;5.900;2023-08-06T12:55:04;6.25;;;2.40;;
54139;SDS011;40046;53.254;5.900;2023-08-06T12:57:31;4.63;;;3.05;;
54139;SDS011;40046;53.254;5.900;2023-08-06T12:59:58;4.93;;;2.80;;
54139;SDS011;40046;53.254;5.900;2023-08-06T13:02:25;3.35;;;2.40;;
54139;SDS011;40046;53.254;5.900;2023-08-06T13:04:55;5.30;;;2.80;;
54139;SDS011;40046;53.254;5.900;2023-08-06T13:07:21;4.05;;;2.53;;
54139;SDS011;40046;53.254;5.900;2023-08-06T13:09:47;3.75;;;2.17;;
54139;SDS011;40046;53.254;5.900;2023-08-06T13:12:13;5.03;;;2.35;;
54139;SDS011;40046;53.254;5.900;2023-08-06T13:14:39;5.38;;;2.30;;
54139;SDS011;40046;53.254;5.900;2023-08-06T13:17:05;4.10;;;2.30;;
54139;SDS011;40046;53.254;5.900;2023-08-06T13:19:32;4.50;;;2.47;;
54139;SDS011;40046;53.254;5.900;2023-08-06T13:22:02;6.18;;;2.45;;
54139;SDS011;40046;53.254;5.900;2023-08-06T13:24:30;4.95;;;2.63;;
54139;SDS011;40046;53.254;5.900;2023-08-06T13:26:56;3.92;;;2.15;;
54139;SDS011;40046;53.254;5.900;2023-08-06T13:29:22;4.05;;;1.98;;
54139;SDS011;40046;53.254;5.900;2023-08-06T13:31:49;4.57;;;2.28;;
54139;SDS011;40046;53.254;5.900;2023-08-06T13:34:15;6.25;;;2.35;;
54139;SDS011;40046;53.254;5.900;2023-08-06T13:36:41;3.80;;;2.20;;
54139;SDS011;40046;53.254;5.900;2023-08-06T13:39:08;5.57;;;2.40;;
54139;SDS011;40046;53.254;5.900;2023-08-06T13:41:34;5.93;;;2.67;;
54139;SDS011;40046;53.254;5.900;2023-08-06T13:44:00;3.05;;;2.00;;
54139;SDS011;40046;53.254;5.900;2023-08-06T13:46:26;4.93;;;2.08;;
54139;SDS011;40046;53.254;5.900;2023-08-06T13:48:52;4.78;;;2.15;;
54139;SDS011;40046;53.254;5.900;2023-08-06T13:51:18;6.07;;;2.15;;
54139;SDS011;40046;53.254;5.900;2023-08-06T13:53:45;3.83;;;1.92;;
54139;SDS011;40046;53.254;5.900;2023-08-06T13:56:11;3.55;;;2.10;;
54139;SDS011;40046;53.254;5.900;2023-08-06T13:58:37;4.00;;;1.90;;
54139;SDS011;40046;53.254;5.900;2023-08-06T14:01:04;3.58;;;1.90;;
54139;SDS011;40046;53.254;5.900;2023-08-06T14:03:30;3.50;;;2.00;;
54139;SDS011;40046;53.254;5.900;2023-08-06T14:05:56;3.88;;;1.75;;
54139;SDS011;40046;53.254;5.900;2023-08-06T14:08:23;5.35;;;2.17;;
54139;SDS011;40046;53.254;5.900;2023-08-06T14:10:50;3.10;;;2.03;;
54139;SDS011;40046;53.254;5.900;2023-08-06T14:13:16;3.42;;;2.00;;
54139;SDS011;40046;53.254;5.900;2023-08-06T14:15:43;3.75;;;2.38;;
54139;SDS011;40046;53.254;5.900;2023-08-06T14:18:12;4.00;;;1.85;;
54139;SDS011;40046;53.254;5.900;2023-08-06T14:20:38;5.25;;;2.70;;
54139;SDS011;40046;53.254;5.900;2023-08-06T14:23:04;3.47;;;2.20;;
54139;SDS011;40046;53.254;5.900;2023-08-06T14:25:30;3.83;;;1.70;;
54139;SDS011;40046;53.254;5.900;2023-08-06T14:27:57;3.80;;;1.98;;
54139;SDS011;40046;53.254;5.900;2023-08-06T14:30:23;3.78;;;1.73;;
54139;SDS011;40046;53.254;5.900;2023-08-06T14:32:49;3.40;;;1.92;;
54139;SDS011;40046;53.254;5.900;2023-08-06T14:35:15;4.18;;;2.00;;
54139;SDS011;40046;53.254;5.900;2023-08-06T14:37:41;4.47;;;1.80;;
54139;SDS011;40046;53.254;5.900;2023-08-06T14:40:08;3.65;;;2.00;;
54139;SDS011;40046;53.254;5.900;2023-08-06T14:42:35;4.60;;;2.42;;
54139;SDS011;40046;53.254;5.900;2023-08-06T14:45:01;5.28;;;2.33;;
54139;SDS011;40046;53.254;5.900;2023-08-06T14:47:27;4.68;;;2.70;;
54139;SDS011;40046;53.254;5.900;2023-08-06T14:49:53;3.25;;;1.98;;
54139;SDS011;40046;53.254;5.900;2023-08-06T14:52:19;3.45;;;1.85;;